Boyd, Minnesota
Current Conditions -  °F | °C
As of 11:14 PM on Tuesday 25 Nov 2014 (Local Time) from KMVE Reporting Station
Overcast Overcast  
Wind Chill: 18°   Ceiling: 8000
Heat Index: 27°   Visibility: 10mi
Dew Point: 19°   Wind: 8mph
Humidity: 74%   Direction: 180°S
Pressure: 29.91"   Gusts: NA
Location:  44.85°N, 95.9°W
Report Text: KMVE 260514Z AUTO 18007KT 10SM OVC080 M03/M07 A2991 RMK AO2
Loading
Personal Weather Stations






























Interactive Weather Map New forecast layout! Learn more

10-Day Weather Forecast

Advertisements
Track Severe Weather on mobile